Terminal Aerodrome Forecast
Issued by NWS

Home | Current Version | Previous Version | Text Only | Print | Product List | Glossary On
Versions: 1 2 3 4 5 6 7 8 9 10 11 12 13 14 15 16 17 18
000
FTUS44 KLZK 171007 AAC
TAFLLQ
TAF AMD
KLLQ 171007Z 1710/1806 20008G15KT P6SM BKN015 BKN120
     FM171200 21011KT P6SM OVC050
     FM171600 23010KT P6SM VCTS SCT040CB OVC080
     FM180200 VRB04KT P6SM BKN250=

USA.gov is the U.S. government's official web portal to all federal, state and local government web resources and services.